Artesia Wells, TX

6:20 PM CDT on April 01, 2015 (GMT -0500)
Cotulla-La Salle County | | Change Station
CLOSE
Current Station
Airport
Location: Cotulla,
Elevation: 476 ft
Nearby Weather Stations

Elev 476 ft 28.46 °N, 99.22 °W | Updated 27 minutes ago

Mostly Cloudy
Mostly Cloudy
84 °F
Feels Like 85 °F
N
14
Wind Variable Wind from SSE

Today
High -- | Low -- °F
--% Chance of Precip.
Yesterday
High -- | Low -- °F
Precip. -- in
7:27 AM 7:54 PM
Waxing Gibbous, 94% visible
Pressure 29.80 in
Visibility 10.0 miles
Clouds Clear
Heat Index 85 °F
Dew Point 64 °F
Humidity 51%
Rainfall 0.09 in
Snow Depth Not available.
UV 2 out of 12
Pollen 11.10 out of 12
Air Quality Not available.
Flu Activity Not available.
METAR KCOT 012253Z AUTO 15012KT 10SM CLR 29/18 A2982 RMK AO2 SLP091 T02890178

More Conditions Fewer Conditions

Pressure 29.80 in
Visibility 10.0 miles
Clouds Clear
Heat Index 85 °F
Dew Point 64 °F
Humidity 51%
Rainfall 0.09 in
Snow Depth Not available.
UV 2 out of 12
Pollen 11.10 out of 12
Air Quality Not available.
Flu Activity Not available.
METAR KCOT 012253Z AUTO 15012KT 10SM CLR 29/18 A2982 RMK AO2 SLP091 T02890178

More Conditions Fewer Conditions

Nowcast | as of 5:23 PM CDT on April 1, 2015

Isolated showers and thunderstorms will continue to develop over the inland portions of the coastal Bend and the Rio Grande plains. Rainfall rates may exceed a half inch per hour in thunderstorms...but will generally range from a tenth to a quarter inch. Primary threats with these thunderstorms will be gusty winds...heavy rainfall... and frequent lightning. If you hear thunder...go inside! Lightning is one of nature's number one killers.

×

10-Day Weather Forecast

Almanac

Astronomy

Apr. 01, 2015 Rise Set
Actual Time
Civil Twilight
Nautical Twilight
Astronomical Twilight
Moon
Length of Visible Light
Length of Day
Tomorrow will be .
, % of the Moon is Illuminated

Today's Extremes

State Highs State Lows

Community

WunderPhotos

Upload Photos

1,810,122 photos uploaded!

WunderBlogs® & News

Nearby

Air Quality

  Air Quality AQ Index Pollutant
Not available.

Snow Depth

Station Depth Elevation

Earthquake Activity

City Distance Mag. Time & Date
Minimum magnitude displayed is 2.5.

Coastal Water Temperatures

Place Temperature

Stations

Nearby Weather Stations

Station Location Temp. Windchill Dew Point Humidity Wind Precip. Elev Updated Type